createdAt,value
2018-12-27T00:00:08.287Z,1032.1
2018-12-27T00:01:05.955Z,1032.15
2018-12-27T00:02:05.538Z,1032.08
2018-12-27T00:03:05.502Z,1032.1
2018-12-27T00:04:05.517Z,1032.16
2018-12-27T00:05:05.528Z,1032.15
2018-12-27T00:06:06.812Z,1032.16
2018-12-27T00:07:06.042Z,1032.14
2018-12-27T00:08:05.839Z,1032.16
2018-12-27T00:09:05.505Z,1032.16
2018-12-27T00:10:05.492Z,1032.14
2018-12-27T00:11:05.482Z,1032.2
2018-12-27T00:12:05.626Z,1032.15
2018-12-27T00:13:05.481Z,1032.13
2018-12-27T00:14:05.501Z,1032.17
2018-12-27T00:15:05.514Z,1032.14
2018-12-27T00:16:05.668Z,1032.13
2018-12-27T00:17:05.706Z,1032.1
2018-12-27T00:18:05.742Z,1032.15
2018-12-27T00:19:05.668Z,1032.14
2018-12-27T00:20:05.555Z,1032.12
2018-12-27T00:21:05.540Z,1032.14
2018-12-27T00:22:05.715Z,1032.08
2018-12-27T00:23:05.500Z,1032.1
2018-12-27T00:24:05.902Z,1032.1
2018-12-27T00:25:05.468Z,1032.12
2018-12-27T00:26:05.674Z,1032.12
2018-12-27T00:27:05.520Z,1032.16
2018-12-27T00:28:06.278Z,1032.14
2018-12-27T00:29:05.559Z,1032.18
2018-12-27T00:30:05.498Z,1032.16
2018-12-27T00:31:05.471Z,1032.18
2018-12-27T00:32:05.498Z,1032.13
2018-12-27T00:33:05.785Z,1032.15
2018-12-27T00:34:05.879Z,1032.09
2018-12-27T00:35:05.610Z,1032.11
2018-12-27T00:36:05.549Z,1032.11
2018-12-27T00:37:05.671Z,1032.12
2018-12-27T00:38:05.657Z,1032.09
2018-12-27T00:39:05.576Z,1032.12
2018-12-27T00:40:05.849Z,1032.04
2018-12-27T00:41:05.577Z,1032.02
2018-12-27T00:42:05.618Z,1032.04
2018-12-27T00:43:05.722Z,1032.08
2018-12-27T00:44:07.729Z,1032
2018-12-27T00:45:05.991Z,1032.02
2018-12-27T00:46:05.688Z,1032
2018-12-27T00:47:05.507Z,1032.05
2018-12-27T00:48:05.628Z,1031.97
2018-12-27T00:49:05.489Z,1031.94
2018-12-27T00:50:05.667Z,1031.87
2018-12-27T00:51:05.641Z,1031.93
2018-12-27T00:52:05.422Z,1031.92
2018-12-27T00:53:05.518Z,1031.92
2018-12-27T00:54:05.587Z,1031.87
2018-12-27T00:55:05.494Z,1031.84
2018-12-27T00:56:05.501Z,1031.86
2018-12-27T00:57:05.524Z,1031.81
2018-12-27T00:58:05.526Z,1031.8
2018-12-27T00:59:05.489Z,1031.76
2018-12-27T01:00:05.479Z,1031.75
2018-12-27T01:01:05.635Z,1031.77
2018-12-27T01:02:05.681Z,1031.73
2018-12-27T01:03:11.574Z,1031.75
2018-12-27T01:04:05.817Z,1031.81
2018-12-27T01:05:05.544Z,1031.75
2018-12-27T01:06:05.682Z,1031.78
2018-12-27T01:07:05.685Z,1031.78
2018-12-27T01:08:05.417Z,1031.78
2018-12-27T01:09:05.542Z,1031.77
2018-12-27T01:10:05.429Z,1031.69
2018-12-27T01:11:05.657Z,1031.73
2018-12-27T01:12:05.424Z,1031.68
2018-12-27T01:13:05.427Z,1031.67
2018-12-27T01:14:05.737Z,1031.72
2018-12-27T01:15:05.654Z,1031.68
2018-12-27T01:16:05.459Z,1031.69
2018-12-27T01:17:05.395Z,1031.65
2018-12-27T01:18:05.470Z,1031.66
2018-12-27T01:19:05.576Z,1031.69
2018-12-27T01:20:05.557Z,1031.67
2018-12-27T01:21:05.480Z,1031.68
2018-12-27T01:22:05.428Z,1031.72
2018-12-27T01:23:06.271Z,1031.72
2018-12-27T01:24:05.474Z,1031.79
2018-12-27T01:25:05.658Z,1031.73
2018-12-27T01:26:05.593Z,1031.74
2018-12-27T01:27:05.527Z,1031.77
2018-12-27T01:28:05.560Z,1031.79
2018-12-27T01:29:05.438Z,1031.74
2018-12-27T01:30:06.265Z,1031.73
2018-12-27T01:31:05.699Z,1031.79
2018-12-27T01:32:05.633Z,1031.75
2018-12-27T01:33:05.457Z,1031.82
2018-12-27T01:34:05.438Z,1031.81
2018-12-27T01:35:05.383Z,1031.73
2018-12-27T01:36:05.428Z,1031.75
2018-12-27T01:37:05.428Z,1031.69
2018-12-27T01:38:05.441Z,1031.7
2018-12-27T01:39:05.420Z,1031.69
2018-12-27T01:40:05.424Z,1031.7
2018-12-27T01:41:05.383Z,1031.71
2018-12-27T01:42:05.452Z,1031.7
2018-12-27T01:43:05.437Z,1031.68
2018-12-27T01:44:05.688Z,1031.64
2018-12-27T01:45:05.374Z,1031.64
2018-12-27T01:46:05.443Z,1031.61
2018-12-27T01:47:05.358Z,1031.55
2018-12-27T01:48:05.401Z,1031.54
2018-12-27T01:49:05.442Z,1031.55
2018-12-27T01:50:05.692Z,1031.54
2018-12-27T01:51:05.404Z,1031.49
2018-12-27T01:52:05.527Z,1031.55
2018-12-27T01:53:05.349Z,1031.49
2018-12-27T01:54:05.517Z,1031.52
2018-12-27T01:55:05.375Z,1031.5
2018-12-27T01:56:05.457Z,1031.48
2018-12-27T01:57:05.455Z,1031.46
2018-12-27T01:58:05.447Z,1031.47
2018-12-27T01:59:05.496Z,1031.46
2018-12-27T02:00:05.587Z,1031.41
2018-12-27T02:01:05.921Z,1031.48
2018-12-27T02:02:05.336Z,1031.42
2018-12-27T02:03:05.352Z,1031.43
2018-12-27T02:04:05.847Z,1031.42
2018-12-27T02:05:05.693Z,1031.41
2018-12-27T02:06:05.384Z,1031.4
2018-12-27T02:07:05.477Z,1031.35
2018-12-27T02:08:06.196Z,1031.34
2018-12-27T02:09:05.577Z,1031.36
2018-12-27T02:10:05.821Z,1031.38
2018-12-27T02:11:05.986Z,1031.42
2018-12-27T02:12:05.582Z,1031.4
2018-12-27T02:13:05.366Z,1031.42
2018-12-27T02:14:05.710Z,1031.44
2018-12-27T02:15:05.589Z,1031.48
2018-12-27T02:16:05.397Z,1031.49
2018-12-27T02:17:05.380Z,1031.45
2018-12-27T02:18:05.551Z,1031.47
2018-12-27T02:19:05.562Z,1031.44
2018-12-27T02:20:05.440Z,1031.42
2018-12-27T02:21:05.739Z,1031.43
2018-12-27T02:22:05.505Z,1031.38
2018-12-27T02:23:06.173Z,1031.38
2018-12-27T02:24:05.565Z,1031.38
2018-12-27T02:25:05.433Z,1031.37
2018-12-27T02:26:05.378Z,1031.43
2018-12-27T02:27:05.818Z,1031.43
2018-12-27T02:28:05.403Z,1031.45
2018-12-27T02:29:05.557Z,1031.39
2018-12-27T02:30:05.763Z,1031.39
2018-12-27T02:31:05.705Z,1031.36
2018-12-27T02:32:05.318Z,1031.35
2018-12-27T02:33:06.146Z,1031.38
2018-12-27T02:34:05.496Z,1031.33
2018-12-27T02:35:05.321Z,1031.32
2018-12-27T02:36:05.586Z,1031.33
2018-12-27T02:37:05.668Z,1031.29
2018-12-27T02:38:05.342Z,1031.32
2018-12-27T02:39:05.315Z,1031.33
2018-12-27T02:40:06.123Z,1031.38
2018-12-27T02:41:05.418Z,1031.39
2018-12-27T02:42:05.728Z,1031.35
2018-12-27T02:43:05.380Z,1031.31
2018-12-27T02:44:05.744Z,1031.31
2018-12-27T02:45:06.131Z,1031.3
2018-12-27T02:46:06.161Z,1031.28
2018-12-27T02:47:05.380Z,1031.3
2018-12-27T02:48:05.358Z,1031.35
2018-12-27T02:49:05.365Z,1031.3
2018-12-27T02:50:05.466Z,1031.3
2018-12-27T02:51:05.452Z,1031.28
2018-12-27T02:52:05.283Z,1031.28
2018-12-27T02:53:05.412Z,1031.33
2018-12-27T02:54:05.501Z,1031.34
2018-12-27T02:55:05.426Z,1031.32
2018-12-27T02:56:05.293Z,1031.36
2018-12-27T02:57:05.353Z,1031.36
2018-12-27T02:58:05.529Z,1031.31
2018-12-27T02:59:05.782Z,1031.3
2018-12-27T03:00:05.316Z,1031.3
2018-12-27T03:01:05.337Z,1031.22
2018-12-27T03:02:05.770Z,1031.23
2018-12-27T03:03:05.517Z,1031.17
2018-12-27T03:04:05.581Z,1031.23
2018-12-27T03:05:05.257Z,1031.17
2018-12-27T03:06:05.644Z,1031.15
2018-12-27T03:07:05.322Z,1031.16
2018-12-27T03:08:05.471Z,1031.21
2018-12-27T03:09:05.506Z,1031.17
2018-12-27T03:10:05.621Z,1031.15
2018-12-27T03:11:05.602Z,1031.14
2018-12-27T03:12:05.429Z,1031.1
2018-12-27T03:13:05.810Z,1031.08
2018-12-27T03:14:05.735Z,1031
2018-12-27T03:15:06.116Z,1031.05
2018-12-27T03:16:05.385Z,1031.07
2018-12-27T03:17:05.278Z,1031.05
2018-12-27T03:18:05.434Z,1031.03
2018-12-27T03:19:05.444Z,1031.05
2018-12-27T03:20:05.307Z,1030.94
2018-12-27T03:21:05.559Z,1030.97
2018-12-27T03:22:05.257Z,1030.98
2018-12-27T03:23:05.268Z,1030.93
2018-12-27T03:24:05.317Z,1030.97
2018-12-27T03:25:05.282Z,1031
2018-12-27T03:26:05.279Z,1031.02
2018-12-27T03:27:05.571Z,1031.01
2018-12-27T03:28:05.358Z,1030.97
2018-12-27T03:29:05.217Z,1030.98
2018-12-27T03:30:05.256Z,1030.98
2018-12-27T03:31:05.591Z,1030.98
2018-12-27T03:32:05.454Z,1030.92
2018-12-27T03:33:05.283Z,1030.92
2018-12-27T03:34:05.263Z,1030.91
2018-12-27T03:35:05.294Z,1030.89
2018-12-27T03:36:05.246Z,1030.9
2018-12-27T03:37:05.241Z,1030.96
2018-12-27T03:38:05.331Z,1030.93
2018-12-27T03:39:05.540Z,1030.95
2018-12-27T03:40:05.244Z,1030.93
2018-12-27T03:41:05.455Z,1030.95
2018-12-27T03:42:05.338Z,1030.92
2018-12-27T03:43:05.383Z,1030.83
2018-12-27T03:44:05.295Z,1030.83
2018-12-27T03:45:05.690Z,1030.82
2018-12-27T03:46:05.660Z,1030.8
2018-12-27T03:47:05.793Z,1030.82
2018-12-27T03:48:05.427Z,1030.77
2018-12-27T03:49:05.553Z,1030.73
2018-12-27T03:50:05.443Z,1030.76
2018-12-27T03:51:05.194Z,1030.7
2018-12-27T03:52:05.525Z,1030.73
2018-12-27T03:53:05.628Z,1030.7
2018-12-27T03:54:05.631Z,1030.65
2018-12-27T03:55:05.225Z,1030.65
2018-12-27T03:56:05.514Z,1030.65
2018-12-27T03:57:05.428Z,1030.63
2018-12-27T03:58:05.320Z,1030.66
2018-12-27T03:59:05.205Z,1030.6
2018-12-27T04:00:06.033Z,1030.58
2018-12-27T04:01:05.449Z,1030.59
2018-12-27T04:02:05.573Z,1030.52
2018-12-27T04:03:05.391Z,1030.51
2018-12-27T04:04:05.275Z,1030.59
2018-12-27T04:05:05.606Z,1030.51
2018-12-27T04:06:05.389Z,1030.49
2018-12-27T04:07:05.410Z,1030.51
2018-12-27T04:08:05.425Z,1030.46
2018-12-27T04:09:05.240Z,1030.42
2018-12-27T04:10:05.488Z,1030.42
2018-12-27T04:11:05.376Z,1030.39
2018-12-27T04:12:05.378Z,1030.42
2018-12-27T04:13:05.915Z,1030.4
2018-12-27T04:14:05.386Z,1030.46
2018-12-27T04:15:05.179Z,1030.42
2018-12-27T04:16:05.184Z,1030.41
2018-12-27T04:17:05.267Z,1030.4
2018-12-27T04:18:05.172Z,1030.44
2018-12-27T04:19:05.241Z,1030.43
2018-12-27T04:20:05.276Z,1030.48
2018-12-27T04:21:05.282Z,1030.52
2018-12-27T04:22:05.491Z,1030.55
2018-12-27T04:23:05.188Z,1030.55
2018-12-27T04:24:05.331Z,1030.59
2018-12-27T04:25:05.981Z,1030.57
2018-12-27T04:26:05.216Z,1030.56
2018-12-27T04:27:05.357Z,1030.56
2018-12-27T04:28:05.224Z,1030.51
2018-12-27T04:29:05.472Z,1030.47
2018-12-27T04:30:05.581Z,1030.46
2018-12-27T04:31:05.999Z,1030.49
2018-12-27T04:32:05.990Z,1030.41
2018-12-27T04:33:05.293Z,1030.52
2018-12-27T04:34:09.907Z,1030.54
2018-12-27T04:35:05.230Z,1030.54
2018-12-27T04:36:05.142Z,1030.49
2018-12-27T04:37:05.232Z,1030.5
2018-12-27T04:38:05.613Z,1030.45
2018-12-27T04:39:05.538Z,1030.39
2018-12-27T04:40:05.214Z,1030.39
2018-12-27T04:41:05.950Z,1030.38
2018-12-27T04:42:05.426Z,1030.36
2018-12-27T04:43:05.286Z,1030.37
2018-12-27T04:44:05.131Z,1030.28
2018-12-27T04:45:05.287Z,1030.24
2018-12-27T04:46:05.377Z,1030.22
2018-12-27T04:47:05.340Z,1030.19
2018-12-27T04:48:05.348Z,1030.21
2018-12-27T04:49:05.575Z,1030.26
2018-12-27T04:50:05.206Z,1030.28
2018-12-27T04:51:05.155Z,1030.3
2018-12-27T04:52:05.325Z,1030.3
2018-12-27T04:53:05.643Z,1030.27
2018-12-27T04:54:05.103Z,1030.2
2018-12-27T04:55:05.082Z,1030.17
2018-12-27T04:56:05.273Z,1030.16
2018-12-27T04:57:05.274Z,1030.2
2018-12-27T04:58:05.126Z,1030.22
2018-12-27T04:59:05.133Z,1030.31
2018-12-27T05:00:05.974Z,1030.31
2018-12-27T05:01:05.131Z,1030.33
2018-12-27T05:02:05.091Z,1030.33
2018-12-27T05:03:05.118Z,1030.27
2018-12-27T05:04:05.214Z,1030.22
2018-12-27T05:05:05.110Z,1030.2
2018-12-27T05:06:05.423Z,1030.23
2018-12-27T05:07:05.173Z,1030.29
2018-12-27T05:08:05.130Z,1030.28
2018-12-27T05:09:05.197Z,1030.25
2018-12-27T05:10:05.134Z,1030.25
2018-12-27T05:11:05.241Z,1030.15
2018-12-27T05:12:05.096Z,1030.15
2018-12-27T05:13:05.440Z,1030.12
2018-12-27T05:14:05.141Z,1030.23
2018-12-27T05:15:05.105Z,1030.21
2018-12-27T05:16:05.105Z,1030.28
2018-12-27T05:17:05.161Z,1030.33
2018-12-27T05:18:05.086Z,1030.33
2018-12-27T05:19:05.096Z,1030.34
2018-12-27T05:20:05.446Z,1030.35
2018-12-27T05:21:05.121Z,1030.36
2018-12-27T05:22:05.122Z,1030.46
2018-12-27T05:23:05.363Z,1030.47
2018-12-27T05:24:05.104Z,1030.51
2018-12-27T05:25:05.561Z,1030.51
2018-12-27T05:26:05.095Z,1030.53
2018-12-27T05:27:05.408Z,1030.6
2018-12-27T05:28:05.152Z,1030.64
2018-12-27T05:29:05.416Z,1030.66
2018-12-27T05:30:05.375Z,1030.7
2018-12-27T05:31:05.285Z,1030.69
2018-12-27T05:32:05.277Z,1030.73
2018-12-27T05:33:05.155Z,1030.7
2018-12-27T05:34:05.107Z,1030.69
2018-12-27T05:35:05.187Z,1030.7
2018-12-27T05:36:05.100Z,1030.67
2018-12-27T05:37:05.596Z,1030.74
2018-12-27T05:38:05.570Z,1030.76
2018-12-27T05:39:05.438Z,1030.74
2018-12-27T05:40:05.415Z,1030.76
2018-12-27T05:41:05.094Z,1030.73
2018-12-27T05:42:05.188Z,1030.68
2018-12-27T05:43:05.394Z,1030.68
2018-12-27T05:44:05.372Z,1030.72
2018-12-27T05:45:05.667Z,1030.66
2018-12-27T05:46:05.152Z,1030.69
2018-12-27T05:47:05.514Z,1030.65
2018-12-27T05:48:05.110Z,1030.65
2018-12-27T05:49:05.331Z,1030.65
2018-12-27T05:50:05.266Z,1030.62
2018-12-27T05:51:05.114Z,1030.57
2018-12-27T05:52:05.118Z,1030.56
2018-12-27T05:53:05.026Z,1030.55
2018-12-27T05:54:05.131Z,1030.61
2018-12-27T05:55:05.172Z,1030.63
2018-12-27T05:56:05.279Z,1030.58
2018-12-27T05:57:05.303Z,1030.62
2018-12-27T05:58:05.173Z,1030.58
2018-12-27T05:59:05.036Z,1030.57
2018-12-27T06:00:05.179Z,1030.58
2018-12-27T06:01:05.397Z,1030.59
2018-12-27T06:02:05.034Z,1030.57
2018-12-27T06:03:05.551Z,1030.54
2018-12-27T06:04:05.389Z,1030.54
2018-12-27T06:05:05.423Z,1030.54
2018-12-27T06:06:05.158Z,1030.43
2018-12-27T06:07:05.273Z,1030.46
2018-12-27T06:08:05.091Z,1030.46
2018-12-27T06:09:05.188Z,1030.52
2018-12-27T06:10:04.988Z,1030.51
2018-12-27T06:11:05.222Z,1030.46
2018-12-27T06:12:05.026Z,1030.49
2018-12-27T06:13:05.135Z,1030.47
2018-12-27T06:14:05.182Z,1030.44
2018-12-27T06:15:05.041Z,1030.49
2018-12-27T06:16:05.381Z,1030.46
2018-12-27T06:17:05.264Z,1030.51
2018-12-27T06:18:05.207Z,1030.52
2018-12-27T06:19:05.213Z,1030.52
2018-12-27T06:20:04.975Z,1030.51
2018-12-27T06:21:04.975Z,1030.48
2018-12-27T06:22:04.999Z,1030.52
2018-12-27T06:23:05.227Z,1030.5
2018-12-27T06:24:05.148Z,1030.47
2018-12-27T06:25:05.125Z,1030.49
2018-12-27T06:26:05.044Z,1030.44
2018-12-27T06:27:05.277Z,1030.41
2018-12-27T06:28:04.971Z,1030.43
2018-12-27T06:29:05.478Z,1030.4
2018-12-27T06:30:05.082Z,1030.4
2018-12-27T06:31:05.463Z,1030.39
2018-12-27T06:32:05.208Z,1030.4
2018-12-27T06:33:05.299Z,1030.4
2018-12-27T06:34:05.178Z,1030.36
2018-12-27T06:35:05.256Z,1030.35
2018-12-27T06:36:05.066Z,1030.32
2018-12-27T06:37:05.381Z,1030.33
2018-12-27T06:38:05.001Z,1030.33
2018-12-27T06:39:05.000Z,1030.32
2018-12-27T06:40:05.030Z,1030.37
2018-12-27T06:41:05.056Z,1030.38
2018-12-27T06:42:05.061Z,1030.4
2018-12-27T06:43:05.028Z,1030.38
2018-12-27T06:44:05.255Z,1030.39
2018-12-27T06:45:05.126Z,1030.46
2018-12-27T06:46:05.272Z,1030.49
2018-12-27T06:47:04.997Z,1030.46
2018-12-27T06:48:05.249Z,1030.45
2018-12-27T06:49:05.087Z,1030.45
2018-12-27T06:50:05.009Z,1030.42
2018-12-27T06:51:05.124Z,1030.38
2018-12-27T06:52:05.098Z,1030.41
2018-12-27T06:53:05.325Z,1030.39
2018-12-27T06:54:05.142Z,1030.35
2018-12-27T06:55:04.992Z,1030.4
2018-12-27T06:56:05.168Z,1030.43
2018-12-27T06:57:05.337Z,1030.48
2018-12-27T06:58:04.991Z,1030.46
2018-12-27T06:59:05.099Z,1030.47
2018-12-27T07:00:05.540Z,1030.45
2018-12-27T07:01:05.456Z,1030.46
2018-12-27T07:02:05.813Z,1030.43
2018-12-27T07:03:04.945Z,1030.47
2018-12-27T07:04:05.315Z,1030.53
2018-12-27T07:05:05.189Z,1030.49
2018-12-27T07:06:05.113Z,1030.47
2018-12-27T07:07:05.356Z,1030.47
2018-12-27T07:08:04.932Z,1030.48
2018-12-27T07:09:05.173Z,1030.47
2018-12-27T07:10:05.772Z,1030.47
2018-12-27T07:11:05.254Z,1030.42
2018-12-27T07:12:05.745Z,1030.47
2018-12-27T07:13:05.294Z,1030.43
2018-12-27T07:14:05.349Z,1030.45
2018-12-27T07:15:04.907Z,1030.48
2018-12-27T07:16:05.157Z,1030.45
2018-12-27T07:17:05.171Z,1030.41
2018-12-27T07:18:05.091Z,1030.41
2018-12-27T07:19:04.946Z,1030.4
2018-12-27T07:20:05.105Z,1030.42
2018-12-27T07:21:05.764Z,1030.39
2018-12-27T07:22:05.203Z,1030.43
2018-12-27T07:23:05.382Z,1030.4
2018-12-27T07:24:05.212Z,1030.44
2018-12-27T07:25:04.970Z,1030.43
2018-12-27T07:26:05.470Z,1030.4
2018-12-27T07:27:05.213Z,1030.38
2018-12-27T07:28:05.135Z,1030.4
2018-12-27T07:29:05.468Z,1030.4
2018-12-27T07:30:05.045Z,1030.43
2018-12-27T07:31:05.154Z,1030.39
2018-12-27T07:32:04.920Z,1030.36
2018-12-27T07:33:05.191Z,1030.34
2018-12-27T07:34:05.078Z,1030.37
2018-12-27T07:35:05.267Z,1030.42
2018-12-27T07:36:05.096Z,1030.4
2018-12-27T07:37:05.738Z,1030.38
2018-12-27T07:38:05.235Z,1030.39
2018-12-27T07:39:05.105Z,1030.35
2018-12-27T07:40:05.417Z,1030.35
2018-12-27T07:41:04.862Z,1030.37
2018-12-27T07:42:05.210Z,1030.38
2018-12-27T07:43:05.708Z,1030.36
2018-12-27T07:44:05.261Z,1030.39
2018-12-27T07:45:04.976Z,1030.36
2018-12-27T07:46:11.242Z,1030.35
2018-12-27T07:47:05.831Z,1030.36
2018-12-27T07:48:04.879Z,1030.34
2018-12-27T07:49:05.318Z,1030.37
2018-12-27T07:50:04.912Z,1030.36
2018-12-27T07:51:04.991Z,1030.29
2018-12-27T07:52:05.181Z,1030.36
2018-12-27T07:53:05.001Z,1030.36
2018-12-27T07:54:05.417Z,1030.32
2018-12-27T07:55:04.872Z,1030.38
2018-12-27T07:56:05.129Z,1030.34
2018-12-27T07:57:04.953Z,1030.38
2018-12-27T07:58:05.137Z,1030.42
2018-12-27T07:59:05.248Z,1030.41
2018-12-27T08:00:05.002Z,1030.37
2018-12-27T08:01:05.220Z,1030.36
2018-12-27T08:02:05.133Z,1030.41
2018-12-27T08:03:04.870Z,1030.36
2018-12-27T08:04:04.958Z,1030.41
2018-12-27T08:05:05.108Z,1030.41
2018-12-27T08:06:05.166Z,1030.39
2018-12-27T08:07:05.066Z,1030.4
2018-12-27T08:08:05.285Z,1030.35
2018-12-27T08:09:05.253Z,1030.31
2018-12-27T08:10:05.147Z,1030.33
2018-12-27T08:11:05.225Z,1030.32
2018-12-27T08:12:04.828Z,1030.35
2018-12-27T08:13:05.310Z,1030.32
2018-12-27T08:14:04.851Z,1030.31
2018-12-27T08:15:05.654Z,1030.31
2018-12-27T08:16:04.824Z,1030.33
2018-12-27T08:17:04.833Z,1030.34
2018-12-27T08:18:05.281Z,1030.37
2018-12-27T08:19:04.913Z,1030.35
2018-12-27T08:20:05.128Z,1030.42
2018-12-27T08:21:04.974Z,1030.46
2018-12-27T08:22:05.058Z,1030.39
2018-12-27T08:23:04.982Z,1030.42
2018-12-27T08:24:05.039Z,1030.39
2018-12-27T08:25:04.999Z,1030.44
2018-12-27T08:26:04.812Z,1030.46
2018-12-27T08:27:05.037Z,1030.41
2018-12-27T08:28:04.967Z,1030.45
2018-12-27T08:29:04.871Z,1030.46
2018-12-27T08:30:04.954Z,1030.46
2018-12-27T08:31:04.856Z,1030.47
2018-12-27T08:32:05.007Z,1030.41
2018-12-27T08:33:04.850Z,1030.44
2018-12-27T08:34:04.995Z,1030.44
2018-12-27T08:35:11.838Z,1030.41
2018-12-27T08:36:04.998Z,1030.4
2018-12-27T08:37:04.966Z,1030.45
2018-12-27T08:38:04.985Z,1030.41
2018-12-27T08:39:05.129Z,1030.41
2018-12-27T08:40:04.796Z,1030.45
2018-12-27T08:41:04.971Z,1030.39
2018-12-27T08:42:05.659Z,1030.44
2018-12-27T08:43:04.941Z,1030.4
2018-12-27T08:44:05.014Z,1030.46
2018-12-27T08:45:05.024Z,1030.46
2018-12-27T08:46:04.927Z,1030.45
2018-12-27T08:47:05.188Z,1030.48
2018-12-27T08:48:05.149Z,1030.48
2018-12-27T08:49:05.021Z,1030.49
2018-12-27T08:50:04.915Z,1030.48
2018-12-27T08:51:04.970Z,1030.45
2018-12-27T08:52:04.895Z,1030.46
2018-12-27T08:53:04.778Z,1030.47
2018-12-27T08:54:05.098Z,1030.42
2018-12-27T08:55:04.824Z,1030.44
2018-12-27T08:56:04.924Z,1030.45
2018-12-27T08:57:04.956Z,1030.42
2018-12-27T08:58:05.017Z,1030.48
2018-12-27T08:59:05.025Z,1030.44
2018-12-27T09:00:04.871Z,1030.44
2018-12-27T09:01:05.050Z,1030.48
2018-12-27T09:02:04.835Z,1030.46
2018-12-27T09:03:05.171Z,1030.46
2018-12-27T09:04:04.797Z,1030.44
2018-12-27T09:05:05.022Z,1030.51
2018-12-27T09:06:04.747Z,1030.48
2018-12-27T09:07:04.906Z,1030.48
2018-12-27T09:08:04.800Z,1030.46
2018-12-27T09:09:04.990Z,1030.47
2018-12-27T09:10:04.977Z,1030.5
2018-12-27T09:11:04.780Z,1030.49
2018-12-27T09:12:05.151Z,1030.52
2018-12-27T09:13:05.075Z,1030.51
2018-12-27T09:14:04.970Z,1030.51
2018-12-27T09:15:05.155Z,1030.51
2018-12-27T09:16:04.760Z,1030.54
2018-12-27T09:17:04.967Z,1030.51
2018-12-27T09:18:04.802Z,1030.5
2018-12-27T09:19:04.965Z,1030.5
2018-12-27T09:20:05.100Z,1030.51
2018-12-27T09:21:04.970Z,1030.47
2018-12-27T09:22:04.780Z,1030.43
2018-12-27T09:23:04.733Z,1030.46
2018-12-27T09:24:05.252Z,1030.45
2018-12-27T09:25:05.021Z,1030.45
2018-12-27T09:26:04.909Z,1030.45
2018-12-27T09:27:04.928Z,1030.47
2018-12-27T09:28:04.761Z,1030.48
2018-12-27T09:29:05.000Z,1030.44
2018-12-27T09:30:05.039Z,1030.44
2018-12-27T09:31:04.824Z,1030.44
2018-12-27T09:32:05.005Z,1030.45
2018-12-27T09:33:04.736Z,1030.47
2018-12-27T09:34:04.720Z,1030.43
2018-12-27T09:35:04.976Z,1030.43
2018-12-27T09:36:04.757Z,1030.45
2018-12-27T09:37:04.956Z,1030.38
2018-12-27T09:38:04.894Z,1030.49
2018-12-27T09:39:04.863Z,1030.46
2018-12-27T09:40:04.831Z,1030.46
2018-12-27T09:41:06.001Z,1030.43
2018-12-27T09:42:04.771Z,1030.45
2018-12-27T09:43:04.773Z,1030.41
2018-12-27T09:44:04.788Z,1030.38
2018-12-27T09:45:04.684Z,1030.46
2018-12-27T09:46:04.926Z,1030.47
2018-12-27T09:47:04.730Z,1030.47
2018-12-27T09:48:04.984Z,1030.48
2018-12-27T09:49:04.968Z,1030.5
2018-12-27T09:50:04.766Z,1030.45
2018-12-27T09:51:05.212Z,1030.45
2018-12-27T09:52:04.973Z,1030.47
2018-12-27T09:53:04.977Z,1030.47
2018-12-27T09:54:05.068Z,1030.44
2018-12-27T09:55:05.063Z,1030.43
2018-12-27T09:56:05.257Z,1030.42
2018-12-27T09:57:04.744Z,1030.46
2018-12-27T09:58:04.952Z,1030.45
2018-12-27T09:59:04.987Z,1030.41
2018-12-27T10:00:04.706Z,1030.44
2018-12-27T10:01:07.970Z,1030.47
2018-12-27T10:02:04.693Z,1030.38
2018-12-27T10:03:05.392Z,1030.44
2018-12-27T10:04:04.701Z,1030.39
2018-12-27T10:05:05.097Z,1030.38
2018-12-27T10:06:04.781Z,1030.36
2018-12-27T10:07:04.975Z,1030.36
2018-12-27T10:08:05.817Z,1030.31
2018-12-27T10:09:04.726Z,1030.3
2018-12-27T10:10:04.837Z,1030.26
2018-12-27T10:11:04.736Z,1030.28
2018-12-27T10:12:04.701Z,1030.28
2018-12-27T10:13:04.732Z,1030.22
2018-12-27T10:14:04.714Z,1030.24
2018-12-27T10:15:05.061Z,1030.22
2018-12-27T10:16:04.886Z,1030.19
2018-12-27T10:17:04.714Z,1030.29
2018-12-27T10:18:07.735Z,1030.29
2018-12-27T10:19:04.744Z,1030.32
2018-12-27T10:20:04.690Z,1030.28
2018-12-27T10:21:04.998Z,1030.26
2018-12-27T10:22:04.806Z,1030.3
2018-12-27T10:23:05.405Z,1030.24
2018-12-27T10:24:05.041Z,1030.29
2018-12-27T10:25:04.769Z,1030.29
2018-12-27T10:26:04.711Z,1030.28
2018-12-27T10:27:05.468Z,1030.28
2018-12-27T10:28:04.660Z,1030.3
2018-12-27T10:29:04.757Z,1030.28
2018-12-27T10:30:05.031Z,1030.3
2018-12-27T10:31:04.764Z,1030.25
2018-12-27T10:32:04.901Z,1030.25
2018-12-27T10:33:04.854Z,1030.25
2018-12-27T10:34:05.710Z,1030.21
2018-12-27T10:35:04.698Z,1030.22
2018-12-27T10:36:04.780Z,1030.2
2018-12-27T10:37:08.183Z,1030.22
2018-12-27T10:38:05.738Z,1030.19
2018-12-27T10:39:05.740Z,1030.2
2018-12-27T10:40:05.457Z,1030.17
2018-12-27T10:41:04.882Z,1030.17
2018-12-27T10:42:04.848Z,1030.16
2018-12-27T10:43:05.443Z,1030.13
2018-12-27T10:44:04.655Z,1030.19
2018-12-27T10:45:04.737Z,1030.13
2018-12-27T10:46:05.466Z,1030.13
2018-12-27T10:47:04.917Z,1030.12
2018-12-27T10:48:05.910Z,1030.12
2018-12-27T10:49:04.738Z,1030.12
2018-12-27T10:50:04.653Z,1030.1
2018-12-27T10:51:04.659Z,1030.04
2018-12-27T10:52:04.637Z,1030.09
2018-12-27T10:53:04.611Z,1030.07
2018-12-27T10:54:04.752Z,1030.05
2018-12-27T10:55:04.689Z,1030.06
2018-12-27T10:56:05.056Z,1030.05
2018-12-27T10:57:04.624Z,1030.01
2018-12-27T10:58:04.755Z,1030.04
2018-12-27T10:59:04.641Z,1030.04
2018-12-27T11:00:04.641Z,1029.98
2018-12-27T11:01:04.650Z,1030.01
2018-12-27T11:02:04.651Z,1029.93
2018-12-27T11:03:04.768Z,1029.92
2018-12-27T11:04:04.686Z,1029.84
2018-12-27T11:05:04.650Z,1029.84
2018-12-27T11:06:04.735Z,1029.85
2018-12-27T11:07:04.606Z,1029.8
2018-12-27T11:08:04.644Z,1029.74
2018-12-27T11:09:04.619Z,1029.76
2018-12-27T11:10:04.601Z,1029.68
2018-12-27T11:11:04.696Z,1029.65
2018-12-27T11:12:04.775Z,1029.65
2018-12-27T11:13:04.811Z,1029.66
2018-12-27T11:14:04.763Z,1029.64
2018-12-27T11:15:04.903Z,1029.63
2018-12-27T11:16:04.646Z,1029.58
2018-12-27T11:17:04.634Z,1029.6
2018-12-27T11:18:04.728Z,1029.54
2018-12-27T11:19:04.853Z,1029.55
2018-12-27T11:20:04.609Z,1029.54
2018-12-27T11:21:04.556Z,1029.54
2018-12-27T11:22:04.825Z,1029.49
2018-12-27T11:23:04.592Z,1029.49
2018-12-27T11:24:04.612Z,1029.44
2018-12-27T11:25:04.567Z,1029.45
2018-12-27T11:26:04.737Z,1029.46
2018-12-27T11:27:04.727Z,1029.43
2018-12-27T11:28:04.547Z,1029.4
2018-12-27T11:29:04.702Z,1029.39
2018-12-27T11:30:04.603Z,1029.37
2018-12-27T11:31:04.688Z,1029.4
2018-12-27T11:32:04.925Z,1029.41
2018-12-27T11:33:04.832Z,1029.45
2018-12-27T11:34:04.535Z,1029.39
2018-12-27T11:35:04.596Z,1029.44
2018-12-27T11:36:05.234Z,1029.4
2018-12-27T11:37:06.219Z,1029.4
2018-12-27T11:38:04.696Z,1029.38
2018-12-27T11:39:04.937Z,1029.35
2018-12-27T11:40:04.941Z,1029.32
2018-12-27T11:41:04.947Z,1029.32
2018-12-27T11:42:05.062Z,1029.32
2018-12-27T11:43:04.857Z,1029.32
2018-12-27T11:44:04.648Z,1029.29
2018-12-27T11:45:04.704Z,1029.3
2018-12-27T11:46:04.797Z,1029.24
2018-12-27T11:47:04.780Z,1029.24
2018-12-27T11:48:04.815Z,1029.23
2018-12-27T11:49:04.546Z,1029.21
2018-12-27T11:50:04.637Z,1029.16
2018-12-27T11:51:04.813Z,1029.19
2018-12-27T11:52:04.750Z,1029.17
2018-12-27T11:53:04.495Z,1029.19
2018-12-27T11:54:04.931Z,1029.17
2018-12-27T11:55:04.609Z,1029.15
2018-12-27T11:56:04.555Z,1029.15
2018-12-27T11:57:04.641Z,1029.11
2018-12-27T11:58:04.729Z,1029.12
2018-12-27T11:59:04.631Z,1029.15
2018-12-27T12:00:04.646Z,1029.07
2018-12-27T12:01:04.570Z,1029.07
2018-12-27T12:02:04.654Z,1029
2018-12-27T12:03:04.938Z,1029.02
2018-12-27T12:04:04.796Z,1029.02
2018-12-27T12:05:04.555Z,1029.02
2018-12-27T12:06:04.973Z,1029.03
2018-12-27T12:07:04.570Z,1029.02
2018-12-27T12:08:04.745Z,1029